Terminal Aerodrome Forecast
Issued by NWS

Home | Current Version | Previous Version | Text Only | Print | Product List | Glossary On
Versions: 1 2 3 4 5 6 7 8 9 10 11 12 13 14 15
000
FTUS43 KPAH 092025 AAA
TAFOWB
TAF AMD
KOWB 092025Z 0920/1018 30012KT P6SM SCT025 OVC040
     FM100000 31006KT P6SM BKN035
     FM100300 29005KT P6SM SKC
     FM101400 22010G16KT P6SM SKC=

USA.gov is the U.S. government's official web portal to all federal, state and local government web resources and services.